Latest Weather Observations for Witchcliffe

IDW60801

Issued at 7:04 am WST Monday 20 February 2017 (issued every 30 minutes, with the page automatically refreshed every 10 minutes)

About weather observations | Map of weather stations | Latest weather observations for WA | Other Formats
Station Details ID: 009746 Name: WITCHCLIFFE Lat: -34.03 Lon: 115.10 Height: 80.0 m
Data from the previous 72 hours. | See also: Recent months at Witchcliffe
Date/Time
WST
Temp
°C
App
Temp
°C
Dew
Point
°C
Rel
Hum
%
Delta-T
°C
Wind Press
QNH
hPa
Press
MSL
hPa
Rain since
9am
mm
Dir  Spd
km/h
Gust
km/h
Spd
kts
Gust
kts
20/07:00am 17.2 17.4 14.8 86 1.4 SSE 7 11 4 6 1014.6 1014.3 0.0
20/06:30am 16.6 17.1 15.0 90 0.9 S 6 7 3 4 1014.5 1014.2 0.0
20/06:00am 16.1 16.4 14.6 91 0.9 S 6 7 3 4 1014.4 1014.1 0.0
20/05:30am 15.8 16.0 14.8 94 0.6 S 7 9 4 5 1014.1 1013.8 0.0
20/05:00am 15.4 15.5 14.4 94 0.6 S 7 9 4 5 1013.8 1013.5 0.0
20/04:30am 14.6 14.4 13.1 91 0.8 S 6 9 3 5 1013.8 1013.5 0.0
20/04:00am 14.8 14.5 13.2 90 0.9 S 7 9 4 5 1013.9 1013.6 0.0
20/03:30am 15.1 14.4 13.3 89 1.0 S 9 9 5 5 1013.9 1013.6 0.0
20/03:00am 15.5 15.3 13.5 88 1.1 S 7 11 4 6 1014.1 1013.8 0.0
20/02:30am 15.7 15.2 13.7 88 1.1 S 9 17 5 9 1014.3 1014.0 0.0
20/02:00am 15.6 15.0 13.6 88 1.1 SSW 9 13 5 7 1014.3 1014.0 0.0
20/01:30am 16.0 15.0 13.5 85 1.4 SSW 11 15 6 8 1014.2 1013.9 0.0
20/01:00am 16.5 15.7 14.0 85 1.4 S 11 17 6 9 1013.9 1013.6 0.0
20/12:30am 16.8 16.0 14.1 84 1.5 S 11 13 6 7 1014.1 1013.8 0.0
20/12:00am 17.2 16.9 14.3 83 1.7 SSE 9 15 5 8 1014.3 1014.0 0.0
 
Date/Time
WST
Temp
°C
App
Temp
°C
Dew
Point
°C
Rel
Hum
%
Delta-T
°C
Wind Press
QNH
hPa
Press
MSL
hPa
Rain since
9am
mm
Dir  Spd
km/h
Gust
km/h
Spd
kts
Gust
kts
19/11:30pm 17.6 16.6 14.5 82 1.8 S 13 20 7 11 1014.6 1014.3 0.0
19/11:00pm 18.2 16.9 14.9 81 1.9 S 15 24 8 13 1014.8 1014.5 0.0
19/10:30pm 18.4 17.1 14.9 80 2.0 S 15 22 8 12 1015.0 1014.7 0.0
19/10:00pm 18.7 17.4 15.8 83 1.7 SSW 17 30 9 16 1015.3 1015.0 0.0
19/09:30pm 19.0 18.2 16.0 83 1.8 S 15 22 8 12 1014.9 1014.6 0.0
19/09:00pm 19.5 20.0 16.5 83 1.8 S 9 17 5 9 1014.7 1014.4 0.0
19/08:30pm 19.9 20.4 15.5 76 2.6 SSW 7 13 4 7 1014.4 1014.1 0.0
19/08:00pm 21.0 21.3 16.0 73 3.0 S 9 13 5 7 1013.9 1013.6 0.0
19/07:30pm 21.4 22.1 15.5 69 3.5 S 6 7 3 4 1013.6 1013.3 0.0
19/07:00pm 21.5 20.7 15.1 67 3.8 S 13 17 7 9 1013.5 1013.2 0.0
19/06:30pm 22.8 21.9 15.9 65 4.2 SW 15 20 8 11 1013.3 1013.0 0.0
19/06:00pm 24.5 22.9 14.0 52 6.2 SSW 15 22 8 12 1013.1 1012.8 0.0
19/05:30pm 26.1 23.2 12.2 42 8.0 SSW 19 24 10 13 1012.9 1012.6 0.0
19/05:00pm 26.1 23.8 12.9 44 7.7 SW 17 24 9 13 1013.1 1012.8 0.0
19/04:30pm 26.3 23.4 12.4 42 8.1 WSW 19 26 10 14 1013.2 1012.9 0.0
19/04:00pm 28.0 25.1 11.1 35 9.7 WSW 17 24 9 13 1013.1 1012.8 0.0
19/03:30pm 28.6 25.8 11.2 34 10.0 W 17 26 9 14 1013.3 1013.0 0.0
19/03:00pm 28.8 26.0 11.4 34 10.0 WNW 17 22 9 12 1013.0 1012.7 0.0
19/02:30pm 28.8 26.0 11.4 34 10.0 W 17 24 9 13 1013.1 1012.8 0.0
19/02:00pm 29.7 27.0 11.7 33 10.5 W 17 24 9 13 1013.5 1013.2 0.0
19/01:30pm 29.4 26.5 12.8 36 9.8 WNW 20 32 11 17 1013.8 1013.5 0.0
19/01:00pm 28.6 25.6 12.5 37 9.4 W 20 28 11 15 1013.9 1013.6 0.0
19/12:30pm 29.4 25.6 12.3 34 10.0 W 24 37 13 20 1014.0 1013.7 0.0
19/12:00pm 31.9 28.1 11.1 28 12.1 WNW 22 32 12 17 1013.8 1013.5 0.0
19/11:30am 34.3 31.9 12.6 27 13.1 NW 17 26 9 14 1013.9 1013.6 0.0
19/11:00am 32.3 31.0 12.5 30 11.8 N 11 19 6 10 1014.1 1013.8 0.0
19/10:30am 31.6 29.9 12.4 31 11.4 NNW 13 20 7 11 1014.6 1014.3 0.0
19/10:00am 29.8 27.9 11.8 33 10.5 N 13 20 7 11 1014.8 1014.5 0.0
19/09:30am 28.7 26.8 11.7 35 9.8 N 13 19 7 10 1015.1 1014.8 0.0
19/09:00am 27.2 25.3 11.7 38 8.9 NNE 13 22 7 12 1015.4 1015.1 0.0
19/08:30am 25.9 24.1 12.0 42 8.0 NNE 13 20 7 11 1015.5 1015.2 0.0
19/08:00am 24.4 23.3 12.0 46 7.1 NNE 9 15 5 8 1015.6 1015.3 0.0
19/07:30am 22.7 22.2 12.0 50 6.1 NE 6 11 3 6 1015.8 1015.5 0.0
19/07:00am 20.4 19.9 12.6 61 4.4 NE 7 9 4 5 1015.8 1015.5 0.0
19/06:30am 18.9 18.2 11.9 64 3.9 NE 7 11 4 6 1015.9 1015.6 0.0
19/06:00am 18.2 17.2 12.4 69 3.2 NE 9 15 5 8 1015.8 1015.5 0.0
19/05:30am 15.4 15.5 13.9 91 0.8 NNE 6 11 3 6 1015.7 1015.4 0.0
19/05:00am 14.0 14.8 12.6 91 0.8 CALM 0 0 0 0 1015.8 1015.5 0.0
19/04:30am 14.1 14.9 12.5 90 0.9 CALM 0 6 0 3 1016.0 1015.7 0.0
19/04:00am 14.7 15.6 12.9 89 1.0 CALM 0 0 0 0 1016.0 1015.7 0.0
19/03:30am 15.0 16.1 13.4 90 0.9 CALM 0 0 0 0 1016.2 1015.9 0.0
19/03:00am 15.3 16.6 14.0 92 0.7 CALM 0 4 0 2 1016.1 1015.8 0.0
19/02:30am 15.5 15.8 14.5 94 0.6 SSE 6 7 3 4 1016.1 1015.8 0.0
19/02:00am 15.5 15.8 14.5 94 0.6 SE 6 9 3 5 1016.2 1015.9 0.0
19/01:30am 15.7 16.0 14.9 95 0.5 SE 7 9 4 5 1016.3 1016.0 0.0
19/01:00am 15.3 16.6 14.2 93 0.6 CALM 0 0 0 0 1016.7 1016.5 0.0
19/12:30am 15.7 17.1 14.4 92 0.7 CALM 0 0 0 0 1016.9 1016.7 0.0
19/12:00am 16.1 17.6 14.6 91 0.9 CALM 0 0 0 0 1017.1 1016.9 0.0
 
Date/Time
WST
Temp
°C
App
Temp
°C
Dew
Point
°C
Rel
Hum
%
Delta-T
°C
Wind Press
QNH
hPa
Press
MSL
hPa
Rain since
9am
mm
Dir  Spd
km/h
Gust
km/h
Spd
kts
Gust
kts
18/11:30pm 16.5 18.1 14.9 90 0.9 CALM 0 0 0 0 1017.1 1016.9 0.0
18/11:00pm 16.6 16.9 14.4 87 1.3 SSW 6 7 3 4 1017.3 1017.1 0.0
18/10:30pm 17.7 18.8 15.5 87 1.3 SSE 4 7 2 4 1017.1 1016.9 0.0
18/10:00pm 17.9 18.5 15.2 84 1.6 ESE 6 7 3 4 1017.4 1017.2 0.0
18/09:30pm 18.4 18.7 15.1 81 1.9 S 7 11 4 6 1018.0 1017.8 0.0
18/09:00pm 19.4 19.8 15.3 77 2.4 ENE 7 11 4 6 1017.9 1017.7 0.0
18/08:30pm 20.0 20.2 14.6 71 3.2 ESE 7 9 4 5 1018.3 1018.1 0.0
18/08:00pm 20.8 20.5 14.5 67 3.7 SE 9 11 5 6 1018.4 1018.2 0.0
18/07:30pm 21.8 21.1 14.2 62 4.5 SSE 11 17 6 9 1018.5 1018.3 0.0
18/07:00pm 23.3 22.7 13.5 54 5.7 SE 9 15 5 8 1018.3 1018.1 0.0
18/06:30pm 24.6 23.4 12.9 48 6.8 SSE 11 22 6 12 1018.4 1018.2 0.0
18/06:00pm 25.2 22.3 12.4 45 7.4 SSE 19 24 10 13 1018.3 1018.1 0.0
18/05:30pm 27.1 24.9 12.0 39 8.7 SSE 15 22 8 12 1018.1 1017.9 0.0
18/05:00pm 28.2 25.6 12.1 37 9.4 SSE 17 24 9 13 1018.0 1017.8 0.0
18/04:30pm 29.2 25.9 11.7 34 10.2 SSE 20 30 11 16 1017.9 1017.7 0.0
18/04:00pm 30.5 27.5 12.4 33 10.7 SSE 20 28 11 15 1017.5 1017.3 0.0
18/03:30pm 30.9 27.4 12.3 32 11.0 SSE 22 28 12 15 1017.4 1017.2 0.0
18/03:00pm 31.2 29.4 12.1 31 11.2 SE 13 20 7 11 1017.7 1017.5 0.0
18/02:30pm 31.8 30.1 9.9 26 12.5 E 9 20 5 11 1017.9 1017.7 0.0
18/02:00pm 31.1 28.9 9.3 26 12.3 E 11 28 6 15 1018.4 1018.2 0.0
18/01:30pm 30.1 28.0 9.6 28 11.6 ESE 11 20 6 11 1018.8 1018.6 0.0
18/01:00pm 29.6 27.5 9.7 29 11.2 ENE 11 17 6 9 1019.2 1019.0 0.0
18/12:30pm 28.7 26.1 9.4 30 10.8 E 13 24 7 13 1019.5 1019.3 0.0
18/12:00pm 28.0 26.8 10.2 33 10.0 ENE 7 19 4 10 1019.8 1019.6 0.0
18/11:30am 27.8 26.2 10.1 33 9.9 ESE 9 19 5 10 1020.3 1020.0 0.0
18/11:00am 26.0 23.0 9.4 35 9.1 ESE 15 20 8 11 1020.7 1020.4 0.0
18/10:30am 25.1 22.5 9.4 37 8.6 E 13 22 7 12 1021.1 1020.8 0.0
18/10:00am 23.7 21.4 10.4 43 7.3 E 13 22 7 12 1021.4 1021.1 0.0
18/09:30am 21.9 19.5 10.1 47 6.4 E 13 20 7 11 1021.5 1021.2 0.0
18/09:00am 20.0 17.1 11.0 56 4.9 E 17 22 9 12 1021.8 1021.5 0.0
18/08:30am 17.6 15.1 11.2 66 3.5 E 15 20 8 11 1021.9 1021.6 0.0
18/08:00am 15.5 13.4 11.1 75 2.3 ESE 13 19 7 10 1021.9 1021.6 0.0
18/07:30am 13.7 12.1 11.4 86 1.2 SE 11 17 6 9 1021.9 1021.6 0.0
18/07:00am 13.0 11.1 11.9 93 0.6 SE 13 19 7 10 1021.9 1021.6 0.0
18/06:30am 11.9 10.2 11.1 95 0.4 SE 11 15 6 8 1022.0 1021.7 0.0
18/06:00am 11.6 9.8 10.7 94 0.5 SE 11 15 6 8 1021.8 1021.5 0.0
18/05:30am 11.9 10.1 10.8 93 0.6 SE 11 17 6 9 1021.5 1021.2 0.0
18/05:00am 12.2 10.4 10.9 92 0.7 SE 11 17 6 9 1021.4 1021.1 0.0
18/04:30am 12.5 10.8 11.2 92 0.7 SE 11 17 6 9 1021.2 1020.9 0.0
18/04:00am 12.7 11.1 11.4 92 0.7 SE 11 15 6 8 1021.2 1020.9 0.0
18/03:30am 12.9 11.7 11.5 91 0.7 SE 9 13 5 7 1021.2 1020.9 0.0
18/03:00am 13.2 11.6 11.6 90 0.9 SE 11 15 6 8 1021.3 1021.0 0.0
18/02:30am 13.7 12.9 11.8 88 1.0 SE 7 11 4 6 1021.3 1021.0 0.0
18/02:00am 14.2 13.1 12.1 87 1.1 SE 9 13 5 7 1021.4 1021.1 0.0
18/01:30am 14.5 13.9 12.2 86 1.3 SE 7 13 4 7 1021.5 1021.2 0.0
18/01:00am 14.8 13.5 12.5 86 1.3 SSE 11 15 6 8 1021.6 1021.3 0.0
18/12:30am 15.0 14.4 12.3 84 1.5 SE 7 9 4 5 1021.6 1021.3 0.0
18/12:00am 15.6 14.4 12.7 83 1.6 SE 11 15 6 8 1021.5 1021.2 0.0
 
Date/Time
WST
Temp
°C
App
Temp
°C
Dew
Point
°C
Rel
Hum
%
Delta-T
°C
Wind Press
QNH
hPa
Press
MSL
hPa
Rain since
9am
mm
Dir  Spd
km/h
Gust
km/h
Spd
kts
Gust
kts
17/11:30pm 15.9 15.1 12.8 82 1.7 SE 9 13 5 7 1021.6 1021.3 0.0
17/11:00pm 16.3 15.2 13.2 82 1.7 SE 11 20 6 11 1021.7 1021.4 0.0
17/10:30pm 16.6 15.6 13.5 82 1.7 SE 11 22 6 12 1021.7 1021.4 0.0
17/10:00pm 16.9 15.7 14.0 83 1.6 SE 13 20 7 11 1021.8 1021.5 0.0
17/09:30pm 17.0 15.5 14.1 83 1.7 SE 15 20 8 11 1021.8 1021.5 0.0
17/09:00pm 17.2 15.3 14.1 82 1.8 SE 17 20 9 11 1021.6 1021.3 0.0
17/08:30pm 17.3 15.3 14.0 81 1.9 SE 17 28 9 15 1021.4 1021.1 0.0
17/08:00pm 17.6 15.1 14.1 80 2.0 SE 20 28 11 15 1021.0 1020.7 0.0
17/07:30pm 17.9 15.3 13.8 77 2.3 SSE 20 32 11 17 1020.8 1020.5 0.0
17/07:00pm 18.7 15.7 13.8 73 2.8 SSE 22 32 12 17 1020.6 1020.3 0.0
17/06:30pm 19.7 16.0 13.9 69 3.3 SSE 26 39 14 21 1020.3 1020.0 0.0
17/06:00pm 21.2 18.7 14.1 64 4.1 SSE 20 32 11 17 1020.2 1019.9 0.0
17/05:30pm 21.7 19.1 13.9 61 4.5 SSE 20 32 11 17 1019.9 1019.7 0.0
17/05:00pm 21.8 17.5 13.2 58 4.9 SSE 28 33 15 18 1019.9 1019.7 0.0
17/04:30pm 22.9 18.8 13.7 56 5.4 S 28 37 15 20 1019.8 1019.6 0.0
17/04:00pm 24.2 20.5 14.0 53 6.0 SSE 26 35 14 19 1019.7 1019.5 0.0
17/03:30pm 24.1 20.3 13.6 52 6.1 SSE 26 35 14 19 1019.6 1019.4 0.0
17/03:00pm 24.2 20.1 13.7 52 6.1 SSE 28 39 15 21 1019.5 1019.3 0.0
17/02:30pm 24.8 21.3 13.4 49 6.7 SSE 24 35 13 19 1019.7 1019.5 0.0
17/02:00pm 25.2 21.7 13.4 48 6.9 SSE 24 41 13 22 1019.8 1019.6 0.0
17/01:30pm 25.8 22.0 13.6 47 7.2 SSE 26 37 14 20 1019.9 1019.7 0.0
17/01:00pm 25.9 22.9 12.7 44 7.7 SE 20 33 11 18 1020.2 1019.9 0.0
17/12:30pm 24.9 21.9 12.5 46 7.2 SE 20 35 11 19 1020.5 1020.2 0.0
17/12:00pm 23.7 20.7 12.0 48 6.6 ESE 19 28 10 15 1020.9 1020.6 0.0
17/11:30am 22.6 19.5 11.7 50 6.1 ESE 19 30 10 16 1021.3 1021.0 0.0
17/11:00am 22.1 19.1 12.4 54 5.5 SE 20 28 11 15 1021.5 1021.2 0.0
17/10:30am 21.5 18.5 12.6 57 5.1 ESE 20 28 11 15 1021.8 1021.5 0.0
17/10:00am 19.5 16.3 11.8 61 4.3 SE 20 28 11 15 1022.0 1021.7 0.0
17/09:30am 18.5 15.3 12.0 66 3.6 SE 20 32 11 17 1021.9 1021.6 0.0
17/09:00am 17.4 14.4 11.9 70 3.0 SE 19 30 10 16 1022.0 1021.7 0.0
17/08:30am 16.1 12.3 11.3 73 2.6 SE 22 33 12 18 1022.0 1021.7 0.0
17/08:00am 15.0 11.8 11.2 78 2.0 ESE 19 35 10 19 1021.9 1021.6 0.0
17/07:30am 14.5 11.1 11.3 81 1.7 ESE 20 28 11 15 1021.5 1021.2 0.0

Other Formats:

Comma delimited format used in spreadsheet applications
http://www.bom.gov.au/fwo/IDW60801/IDW60801.95641.axf

JavaScript Object Notation format (JSON) in row-major order
http://www.bom.gov.au/fwo/IDW60801/IDW60801.95641.json